Time;durP1;ratioP1;P1;durP2;ratioP2;P2;SDS_P1;SDS_P2;PMS_P1;PMS_P2;Temp;Humidity;BMP_temperature;BMP_pressure;BME280_temperature;BME280_humidity;BME280_pressure;Samples;Min_cycle;Max_cycle;Signal;HPM_P1;HPM_P2
2021/04/10 00:00:50;;;;;;;1.00;1.00;;;;;;;-1.03;62.54;94296.31;5090743;28;20022;-49
2021/04/10 00:03:16;;;;;;;1.38;0.82;;;;;;;-1.21;63.37;94282.03;5090786;28;20516;-47
2021/04/10 00:05:41;;;;;;;0.30;0.30;;;;;;;-1.16;63.53;94282.16;5091219;28;20016;-50
2021/04/10 00:08:07;;;;;;;1.67;1.58;;;;;;;-1.18;63.54;94281.09;5091250;28;20111;-51
2021/04/10 00:10:33;;;;;;;0.52;0.52;;;;;;;-1.49;64.43;94243.34;5091099;28;20055;-51
2021/04/10 00:12:59;;;;;;;0.98;0.95;;;;;;;-1.18;64.05;94281.09;5091025;28;20028;-49
2021/04/10 00:15:26;;;;;;;0.30;0.30;;;;;;;-1.34;63.51;94286.84;5090911;28;20047;-51
2021/04/10 00:17:52;;;;;;;1.48;1.38;;;;;;;-1.45;63.48;94270.28;5090716;28;20747;-47
2021/04/10 00:20:18;;;;;;;0.55;0.55;;;;;;;-1.42;63.23;94277.50;5090546;28;20045;-48
2021/04/10 00:22:45;;;;;;;0.38;0.38;;;;;;;-1.44;63.15;94275.25;5090496;28;20077;-48
2021/04/10 00:25:11;;;;;;;1.38;0.93;;;;;;;-1.47;63.46;94276.13;5080697;28;20052;-47
2021/04/10 00:27:37;;;;;;;1.30;1.30;;;;;;;-1.44;63.24;94271.78;5070069;28;20706;-50
2021/04/10 00:30:04;;;;;;;0.50;0.50;;;;;;;-1.41;63.17;94274.34;5069754;28;20115;-47
2021/04/10 00:32:29;;;;;;;0.40;0.40;;;;;;;-1.26;63.42;94274.50;5070208;28;20106;-50
2021/04/10 00:34:55;;;;;;;0.50;0.50;;;;;;;-1.40;64.01;94266.97;5070314;28;20075;-50
2021/04/10 00:37:20;;;;;;;0.30;0.30;;;;;;;-1.29;63.63;94269.97;5070212;28;20133;-48
2021/04/10 00:39:45;;;;;;;0.30;0.30;;;;;;;-1.38;64.27;94269.97;5068694;28;20020;-47
2021/04/10 00:42:11;;;;;;;0.43;0.43;;;;;;;-1.45;64.12;94265.59;5069865;28;20028;-48
2021/04/10 00:44:37;;;;;;;0.30;0.30;;;;;;;-1.80;64.79;94248.16;5077890;28;20110;-48
2021/04/10 00:47:02;;;;;;;0.30;0.30;;;;;;;-1.84;65.53;94264.53;5089625;28;20501;-49
2021/04/10 00:49:28;;;;;;;0.77;0.77;;;;;;;-1.85;67.09;94276.56;5075882;28;20051;-50
2021/04/10 00:51:53;;;;;;;0.43;0.43;;;;;;;-1.87;66.27;94264.69;5068495;28;20027;-49
2021/04/10 00:54:19;;;;;;;1.13;0.93;;;;;;;-1.73;65.78;94259.44;5069457;28;20028;-48
2021/04/10 00:56:44;;;;;;;0.20;0.20;;;;;;;-1.60;65.58;94270.88;5087167;28;20028;-47
2021/04/10 00:59:10;;;;;;;0.43;0.43;;;;;;;-1.67;66.09;94268.47;5090165;28;20061;-48
2021/04/10 01:01:35;;;;;;;0.70;0.70;;;;;;;-1.59;64.62;94266.22;5089718;28;20024;-47
2021/04/10 01:04:01;;;;;;;0.85;0.85;;;;;;;-1.73;64.79;94262.16;5089212;28;20522;-47
2021/04/10 01:06:27;;;;;;;0.35;0.35;;;;;;;-1.75;64.78;94256.44;5069821;28;20090;-49
2021/04/10 01:08:53;;;;;;;0.28;0.28;;;;;;;-1.64;65.13;94267.56;5069556;28;20549;-48
2021/04/10 01:11:27;;;;;;;0.47;0.47;;;;;;;-1.68;65.11;94269.69;5069790;28;20029;-47
2021/04/10 01:14:33;;;;;;;3.72;1.45;;;;;;;-1.64;65.12;94261.41;5070582;28;20119;-53
2021/04/10 01:17:01;;;;;;;1.00;1.00;;;;;;;-1.74;64.65;94262.59;4972318;28;20046;-51
2021/04/10 01:19:54;;;;;;;7.43;1.70;;;;;;;-1.78;65.28;94260.06;5072737;28;20124;-54
2021/04/10 01:22:44;;;;;;;0.95;0.95;;;;;;;-1.77;66.35;94258.84;5088410;28;20028;-51
2021/04/10 01:25:14;;;;;;;0.40;0.40;;;;;;;-1.84;65.58;94242.16;5079955;28;20077;-54
2021/04/10 01:27:56;;;;;;;0.73;0.70;;;;;;;-2.04;65.63;94253.41;5074560;28;20031;-51
2021/04/10 01:30:23;;;;;;;0.50;0.50;;;;;;;-2.08;66.42;94257.44;5074433;28;20024;-54
2021/04/10 01:33:02;;;;;;;4.13;3.75;;;;;;;-2.16;65.88;94248.84;5068328;28;20051;-51
2021/04/10 01:35:33;;;;;;;;;;;;;;;-2.07;65.91;94250.81;5068445;28;20508;-53
2021/04/10 01:37:59;;;;;;;1.27;1.27;;;;;;;-2.21;66.89;94246.00;5069482;28;20434;-55
2021/04/10 01:40:27;;;;;;;0.20;0.20;;;;;;;-2.28;66.73;94228.09;5076126;28;20050;-54
2021/04/10 01:42:54;;;;;;;2.88;2.03;;;;;;;-2.18;66.13;94245.06;5068065;28;20029;-51
2021/04/10 01:45:20;;;;;;;0.43;0.43;;;;;;;-2.27;66.08;94240.41;5068210;28;20025;-51
2021/04/10 01:47:47;;;;;;;1.08;1.00;;;;;;;-2.34;67.22;94240.69;5072135;28;20032;-55
2021/04/10 01:50:12;;;;;;;0.85;0.85;;;;;;;-2.41;66.89;94238.28;5087137;28;20071;-56
2021/04/10 01:52:39;;;;;;;0.90;0.90;;;;;;;-2.33;66.43;94240.25;5089574;28;20059;-56
2021/04/10 01:55:05;;;;;;;0.30;0.30;;;;;;;-2.22;66.37;94236.34;5088217;28;20509;-54
2021/04/10 01:57:31;;;;;;;0.60;0.60;;;;;;;-2.44;66.34;94214.81;5088111;28;20052;-56
2021/04/10 01:59:58;;;;;;;0.25;0.25;;;;;;;-2.46;65.51;94199.06;5088167;28;20062;-56
2021/04/10 02:02:24;;;;;;;0.68;0.65;;;;;;;-2.36;65.90;94235.00;5087762;28;20063;-51
2021/04/10 02:04:51;;;;;;;0.68;0.68;;;;;;;-2.26;65.92;94241.16;5089179;28;20020;-53
2021/04/10 02:07:20;;;;;;;0.65;0.65;;;;;;;-2.33;66.49;94239.50;5088320;28;20043;-55
2021/04/10 02:09:46;;;;;;;;;;;;;;;-2.30;66.05;94249.41;5088393;28;20424;-51
2021/04/10 02:12:13;;;;;;;1.55;1.52;;;;;;;-2.31;66.13;94239.78;5088223;28;19937;-52
2021/04/10 02:14:39;;;;;;;0.85;0.80;;;;;;;-2.51;66.78;94223.97;5087801;28;20501;-49
2021/04/10 02:17:07;;;;;;;0.30;0.30;;;;;;;-2.38;66.71;94221.13;5089059;28;20024;-50
2021/04/10 02:19:32;;;;;;;0.93;0.60;;;;;;;-2.40;66.94;94237.06;5088994;28;20071;-48
2021/04/10 02:21:58;;;;;;;0.20;0.20;;;;;;;-2.44;67.27;94231.81;5089312;28;20106;-50
2021/04/10 02:24:23;;;;;;;0.20;0.20;;;;;;;-2.32;66.62;94236.31;5086947;28;20017;-51
2021/04/10 02:26:49;;;;;;;6.32;2.05;;;;;;;-2.26;66.52;94239.22;5072509;28;20147;-47
2021/04/10 02:29:14;;;;;;;0.30;0.30;;;;;;;-2.26;66.11;94239.22;5072041;28;20023;-47
2021/04/10 02:31:44;;;;;;;0.70;0.70;;;;;;;-2.35;66.98;94236.47;5083313;28;20028;-51
2021/04/10 02:34:20;;;;;;;1.25;1.25;;;;;;;-2.38;67.70;94232.72;5082209;28;20032;-49
2021/04/10 02:36:49;;;;;;;1.95;1.85;;;;;;;-2.48;67.45;94233.13;5087711;28;20081;-47
2021/04/10 02:39:15;;;;;;;1.25;1.17;;;;;;;-2.30;66.85;94238.59;5081885;28;20052;-49
2021/04/10 02:41:44;;;;;;;0.73;0.73;;;;;;;-2.67;67.46;94229.63;5082056;28;20446;-52
2021/04/10 02:44:10;;;;;;;0.30;0.30;;;;;;;-2.63;67.63;94230.25;5082137;28;20401;-50
2021/04/10 02:46:38;;;;;;;0.20;0.20;;;;;;;-2.54;67.14;94224.09;5091252;28;20019;-48
2021/04/10 02:49:06;;;;;;;1.55;0.85;;;;;;;-2.61;67.43;94230.53;5081921;28;20100;-49
2021/04/10 02:51:38;;;;;;;0.60;0.60;;;;;;;-2.51;66.87;94234.78;5081643;28;20147;-50
2021/04/10 02:54:05;;;;;;;0.68;0.68;;;;;;;-2.65;67.29;94218.38;5088380;28;20023;-49
2021/04/10 02:56:32;;;;;;;0.95;0.93;;;;;;;-2.63;67.28;94232.19;5091080;28;20473;-48
2021/04/10 02:58:59;;;;;;;0.38;0.38;;;;;;;-2.58;66.69;94237.00;5091061;28;20028;-49
2021/04/10 03:01:25;;;;;;;0.85;0.82;;;;;;;-2.63;66.89;94237.59;5085556;28;20439;-48
2021/04/10 03:03:51;;;;;;;0.30;0.30;;;;;;;-2.60;66.25;94239.41;5090718;28;20037;-50
2021/04/10 03:06:17;;;;;;;0.30;0.30;;;;;;;-2.79;66.36;94224.28;5090744;28;20123;-51
2021/04/10 03:08:42;;;;;;;0.40;0.40;;;;;;;-2.75;66.69;94222.97;5091268;28;20024;-53
2021/04/10 03:11:09;;;;;;;0.20;0.20;;;;;;;-2.72;66.48;94241.00;5081637;28;20039;-53
2021/04/10 03:13:34;;;;;;;0.30;0.30;;;;;;;-2.86;66.91;94238.09;5090920;28;20466;-51
2021/04/10 03:16:00;;;;;;;0.30;0.30;;;;;;;-2.90;67.77;94243.63;5081150;28;20039;-50
2021/04/10 03:18:25;;;;;;;0.47;0.47;;;;;;;-2.86;67.30;94233.44;5090603;28;20736;-50
2021/04/10 03:20:51;;;;;;;0.40;0.40;;;;;;;-2.74;66.46;94238.00;5079334;28;20070;-51
2021/04/10 03:23:16;;;;;;;0.30;0.30;;;;;;;-2.92;66.42;94226.38;5070575;28;20025;-53
2021/04/10 03:25:42;;;;;;;0.20;0.20;;;;;;;-2.93;66.44;94236.41;5084521;28;20020;-50
2021/04/10 03:28:09;;;;;;;0.28;0.28;;;;;;;-3.13;66.97;94233.28;5079524;28;20565;-54
2021/04/10 03:30:35;;;;;;;0.20;0.20;;;;;;;-3.13;67.39;94231.34;5088525;28;20020;-49
2021/04/10 03:33:02;;;;;;;1.65;0.82;;;;;;;-2.99;66.96;94242.84;5088052;28;20103;-49
2021/04/10 03:35:28;;;;;;;1.08;1.00;;;;;;;-3.10;67.32;94243.97;5090838;28;20020;-52
2021/04/10 03:37:57;;;;;;;1.05;1.05;;;;;;;-3.24;68.07;94236.38;5090855;28;20042;-55
2021/04/10 03:40:22;;;;;;;;;;;;;;;-2.96;67.95;94248.09;5091217;28;20070;-55
2021/04/10 03:42:48;;;;;;;0.20;0.20;;;;;;;-3.02;67.29;94249.09;5081309;28;19912;-54
2021/04/10 03:45:16;;;;;;;0.20;0.20;;;;;;;-3.05;67.60;94245.34;5090733;28;20065;-55
2021/04/10 03:47:41;;;;;;;0.40;0.40;;;;;;;-3.15;67.73;94230.28;5091042;28;20023;-56
2021/04/10 03:50:08;;;;;;;1.08;1.08;;;;;;;-3.04;66.81;94230.66;5091073;28;20028;-56
2021/04/10 03:52:34;;;;;;;5.88;1.20;;;;;;;-3.13;67.90;94260.31;5091245;28;20032;-56
2021/04/10 03:55:01;;;;;;;0.50;0.50;;;;;;;-3.17;68.17;94268.53;5091320;28;20477;-54
2021/04/10 03:57:27;;;;;;;1.27;1.27;;;;;;;-3.16;68.33;94264.63;5091357;28;20016;-52
2021/04/10 03:59:52;;;;;;;1.30;1.30;;;;;;;-3.27;69.56;94269.66;5091269;28;20035;-55
2021/04/10 04:02:18;;;;;;;0.45;0.45;;;;;;;-3.27;69.32;94271.63;5090763;28;20425;-52
2021/04/10 04:04:43;;;;;;;1.25;1.25;;;;;;;-3.15;68.93;94265.41;5091009;28;20016;-54
2021/04/10 04:07:08;;;;;;;2.63;2.42;;;;;;;-3.28;69.12;94273.56;5090809;28;20016;-49
2021/04/10 04:09:35;;;;;;;1.08;0.88;;;;;;;-3.36;68.78;94272.31;5090689;28;20020;-49
2021/04/10 04:12:01;;;;;;;0.50;0.50;;;;;;;-3.05;68.79;94271.63;5089679;28;20031;-52
2021/04/10 04:14:26;;;;;;;0.35;0.35;;;;;;;-3.25;68.00;94237.56;5090627;28;20028;-52
2021/04/10 04:16:52;;;;;;;0.32;0.32;;;;;;;-2.92;67.82;94269.59;5090496;28;20028;-53
2021/04/10 04:19:17;;;;;;;0.65;0.65;;;;;;;-2.93;67.26;94268.84;5090651;28;20024;-55
2021/04/10 04:21:43;;;;;;;0.38;0.38;;;;;;;-3.00;67.04;94252.88;5090706;28;20030;-52
2021/04/10 04:24:09;;;;;;;2.75;2.17;;;;;;;-2.76;67.11;94263.97;5090405;28;20115;-50
2021/04/10 04:26:34;;;;;;;0.75;0.75;;;;;;;-2.98;65.80;94241.63;5090627;28;20023;-51
2021/04/10 04:29:00;;;;;;;2.22;2.13;;;;;;;-2.73;65.38;94276.59;5089262;28;20044;-53
2021/04/10 04:31:25;;;;;;;1.73;1.63;;;;;;;-2.83;66.30;94259.56;5090355;28;20031;-50
2021/04/10 04:33:50;;;;;;;1.67;1.58;;;;;;;-2.84;66.09;94276.22;5090475;28;20024;-52
2021/04/10 04:36:16;;;;;;;1.35;1.35;;;;;;;-2.67;65.66;94275.56;5090435;28;20068;-50
2021/04/10 04:38:41;;;;;;;3.63;3.40;;;;;;;-2.53;66.06;94279.66;5090453;28;20028;-51
2021/04/10 04:41:08;;;;;;;3.85;3.65;;;;;;;-2.73;65.87;94271.19;5089784;28;20570;-50
2021/04/10 04:43:33;;;;;;;2.78;2.58;;;;;;;-2.45;65.32;94283.63;5090472;28;20157;-48
2021/04/10 04:45:59;;;;;;;4.82;3.55;;;;;;;-2.20;64.87;94275.28;5090389;28;20580;-49
2021/04/10 04:48:24;;;;;;;4.72;2.78;;;;;;;-2.10;65.59;94274.09;5089262;28;20020;-50
2021/04/10 04:50:50;;;;;;;3.78;3.50;;;;;;;-2.09;65.26;94282.97;5090381;28;20020;-49
2021/04/10 04:53:15;;;;;;;4.15;3.00;;;;;;;-1.95;65.91;94280.44;5090275;28;20107;-52
2021/04/10 04:55:41;;;;;;;1.13;1.13;;;;;;;-2.02;66.18;94285.41;5089907;28;20024;-51
2021/04/10 04:58:06;;;;;;;3.22;3.03;;;;;;;-2.18;66.48;94289.13;5090180;28;20028;-49
2021/04/10 05:00:32;;;;;;;3.67;2.92;;;;;;;-2.17;66.77;94293.34;5090124;28;20759;-49
2021/04/10 05:02:57;;;;;;;4.25;3.83;;;;;;;-2.13;67.58;94280.41;5089848;28;20545;-50
2021/04/10 05:05:23;;;;;;;2.05;1.83;;;;;;;-2.23;67.34;94272.72;5089949;28;20012;-50
2021/04/10 05:07:48;;;;;;;0.75;0.75;;;;;;;-1.91;67.18;94286.50;5089964;28;20058;-50
2021/04/10 05:10:13;;;;;;;0.75;0.75;;;;;;;-1.77;67.04;94280.50;5089660;28;20111;-52
2021/04/10 05:12:39;;;;;;;1.40;1.40;;;;;;;-1.65;66.87;94279.63;5090047;28;20108;-52
2021/04/10 05:15:06;;;;;;;0.30;0.30;;;;;;;-1.60;67.04;94281.72;5090467;28;20481;-51
2021/04/10 05:17:31;;;;;;;2.05;1.95;;;;;;;-1.68;66.22;94252.69;5084508;28;20471;-50
2021/04/10 05:19:57;;;;;;;0.98;0.98;;;;;;;-1.25;65.82;94292.25;5069623;28;20031;-50
2021/04/10 05:22:22;;;;;;;1.98;1.88;;;;;;;-1.38;65.22;94268.03;5069192;28;20020;-51
2021/04/10 05:24:47;;;;;;;2.42;1.63;;;;;;;-1.22;65.12;94285.94;5075998;28;20040;-51
2021/04/10 05:27:13;;;;;;;1.80;1.70;;;;;;;-0.96;64.58;94287.88;5089455;28;20038;-49
2021/04/10 05:29:38;;;;;;;0.88;0.88;;;;;;;-0.88;64.46;94286.34;5080516;28;20020;-51
2021/04/10 05:32:04;;;;;;;0.88;0.88;;;;;;;-0.79;64.12;94278.19;5069720;28;20089;-48
2021/04/10 05:34:30;;;;;;;2.10;1.38;;;;;;;-0.87;64.00;94249.88;5069375;28;20435;-52
2021/04/10 05:36:55;;;;;;;1.13;1.13;;;;;;;-0.12;63.99;94288.66;5076830;28;20016;-48
2021/04/10 05:39:21;;;;;;;3.33;1.20;;;;;;;0.59;61.00;94249.88;5089394;28;20106;-50
2021/04/10 05:41:46;;;;;;;1.67;0.90;;;;;;;1.51;57.85;94283.94;5089439;28;20081;-54
2021/04/10 05:44:12;;;;;;;0.40;0.40;;;;;;;1.71;57.04;94269.66;5089473;28;20077;-54
2021/04/10 05:46:37;;;;;;;0.40;0.40;;;;;;;1.79;57.34;94281.66;5069450;28;20024;-53
2021/04/10 05:49:03;;;;;;;1.67;1.58;;;;;;;1.81;56.87;94276.47;5069256;28;20021;-52
2021/04/10 05:51:28;;;;;;;0.75;0.75;;;;;;;1.86;58.06;94278.53;5069610;28;20669;-53
2021/04/10 05:53:53;;;;;;;0.77;0.77;;;;;;;1.97;57.17;94268.56;5069549;28;20487;-50
2021/04/10 05:56:19;;;;;;;0.75;0.75;;;;;;;2.13;58.16;94276.22;5069099;28;20451;-51
2021/04/10 05:58:44;;;;;;;0.50;0.50;;;;;;;2.60;56.61;94269.66;5069123;28;20024;-50
2021/04/10 06:01:12;;;;;;;0.60;0.60;;;;;;;2.97;55.39;94261.63;5073319;28;20020;-56
2021/04/10 06:03:37;;;;;;;1.10;0.95;;;;;;;3.34;53.47;94269.94;5085521;28;20517;-59
2021/04/10 06:06:03;;;;;;;0.98;0.90;;;;;;;3.90;52.53;94271.91;5092772;28;20023;-59
2021/04/10 06:08:29;;;;;;;0.30;0.30;;;;;;;4.60;49.40;94274.84;5092463;28;20020;-54
2021/04/10 06:10:54;;;;;;;0.50;0.50;;;;;;;5.43;46.48;94261.44;5092585;28;20012;-55
2021/04/10 06:13:20;;;;;;;0.82;0.82;;;;;;;5.51;44.41;94259.69;5092586;28;20046;-56
2021/04/10 06:15:45;;;;;;;0.68;0.68;;;;;;;5.79;43.24;94260.47;5091970;28;20012;-50
2021/04/10 06:18:12;;;;;;;1.42;1.33;;;;;;;6.34;43.17;94262.44;5093179;28;20016;-51
2021/04/10 06:20:37;;;;;;;0.57;0.57;;;;;;;7.71;42.03;94259.56;5093113;28;20034;-53
2021/04/10 06:23:04;;;;;;;0.20;0.20;;;;;;;9.34;38.63;94258.22;5077032;28;20020;-53
2021/04/10 06:25:29;;;;;;;3.03;1.52;;;;;;;10.72;35.35;94260.84;5091094;28;20019;-51
2021/04/10 06:27:55;;;;;;;1.15;1.15;;;;;;;12.02;32.73;94251.59;5092899;28;20477;-48
2021/04/10 06:30:21;;;;;;;1.27;1.27;;;;;;;12.51;31.11;94246.13;5077886;28;20032;-48
2021/04/10 06:32:47;;;;;;;1.15;1.08;;;;;;;13.57;29.87;94244.75;5072781;28;20044;-49
2021/04/10 06:35:12;;;;;;;0.77;0.63;;;;;;;14.36;28.04;94250.13;5089046;28;20085;-52
2021/04/10 06:37:38;;;;;;;0.20;0.20;;;;;;;14.79;26.55;94243.66;5092501;28;20063;-50
2021/04/10 06:40:05;;;;;;;0.30;0.30;;;;;;;14.50;26.06;94254.22;5092589;28;20023;-47
2021/04/10 06:42:32;;;;;;;0.38;0.38;;;;;;;14.75;26.20;94246.78;5092676;28;20105;-51
2021/04/10 06:44:58;;;;;;;0.95;0.95;;;;;;;15.54;25.82;94237.19;5092628;28;20054;-50
2021/04/10 06:47:26;;;;;;;0.25;0.25;;;;;;;16.00;25.36;94243.31;5092236;28;20111;-49
2021/04/10 06:49:52;;;;;;;0.17;0.17;;;;;;;16.49;24.30;94246.16;5072983;28;20082;-50
2021/04/10 06:52:19;;;;;;;4.82;0.95;;;;;;;16.41;23.75;94239.91;5082505;28;20105;-50
2021/04/10 06:55:02;;;;;;;1.02;1.02;;;;;;;16.76;23.77;94240.78;5088646;28;20020;-47
2021/04/10 06:57:28;;;;;;;0.30;0.30;;;;;;;17.10;23.93;94235.25;5090006;28;20031;-49
2021/04/10 07:00:07;;;;;;;3.13;1.58;;;;;;;17.65;22.99;94243.97;5090096;28;20050;-47
2021/04/10 07:02:32;;;;;;;0.50;0.50;;;;;;;18.03;22.38;94238.66;5090108;28;20090;-49
2021/04/10 07:04:59;;;;;;;0.80;0.80;;;;;;;18.85;21.51;94235.97;5089889;28;20114;-50
2021/04/10 07:07:26;;;;;;;3.72;2.17;;;;;;;19.64;20.45;94239.06;5089806;28;20028;-48
2021/04/10 07:09:52;;;;;;;1.67;1.58;;;;;;;20.46;18.80;94226.72;5090231;28;20032;-48
2021/04/10 07:12:18;;;;;;;1.30;1.30;;;;;;;21.10;15.54;94236.78;5089088;28;20107;-48
2021/04/10 07:14:43;;;;;;;0.40;0.40;;;;;;;20.42;17.00;94233.50;5090314;28;20103;-47
2021/04/10 07:17:12;;;;;;;0.38;0.30;;;;;;;21.56;14.96;94237.09;5089653;28;20568;-47
2021/04/10 07:19:38;;;;;;;0.32;0.32;;;;;;;21.52;14.60;94216.41;5089448;28;20039;-49
2021/04/10 07:22:07;;;;;;;0.40;0.40;;;;;;;22.42;13.65;94227.88;5088294;28;20024;-50
2021/04/10 07:24:41;;;;;;;0.77;0.50;;;;;;;22.88;14.67;94238.50;5089873;28;20042;-48
2021/04/10 07:27:09;;;;;;;14.50;1.83;;;;;;;23.79;14.30;94227.72;5089691;28;20032;-47
2021/04/10 07:29:36;;;;;;;0.10;0.10;;;;;;;24.36;12.91;94228.13;5080583;28;20032;-48
2021/04/10 07:32:22;;;;;;;2.83;1.08;;;;;;;24.24;11.80;94231.00;5069077;28;20056;-46
2021/04/10 07:34:47;;;;;;;0.40;0.40;;;;;;;24.62;12.71;94215.44;5071687;28;20032;-48
2021/04/10 07:37:31;;;;;;;0.60;0.45;;;;;;;25.49;11.31;94232.09;5054528;28;20031;-46
2021/04/10 07:39:58;;;;;;;0.10;0.10;;;;;;;25.42;11.00;94235.97;5087065;28;20034;-49
2021/04/10 07:42:25;;;;;;;0.20;0.20;;;;;;;25.56;11.47;94231.03;5088763;28;20028;-43
2021/04/10 07:44:51;;;;;;;1.95;1.85;;;;;;;25.57;11.82;94229.69;5089003;28;20067;-44
2021/04/10 07:47:33;;;;;;;1.55;0.43;;;;;;;24.44;12.37;94225.75;5085868;28;20032;-45
2021/04/10 07:50:19;;;;;;;0.80;0.80;;;;;;;25.56;11.01;94226.13;5088981;28;20038;-45
2021/04/10 07:52:44;;;;;;;0.98;0.75;;;;;;;26.02;10.94;94222.03;5087689;28;20036;-47
2021/04/10 07:55:36;;;;;;;1.33;1.25;;;;;;;27.08;11.20;94213.56;5086785;28;20397;-46
2021/04/10 07:58:30;;;;;;;2.22;1.13;;;;;;;26.29;10.78;94207.09;5089203;28;20059;-45
2021/04/10 08:01:14;;;;;;;0.35;0.35;;;;;;;25.19;11.00;94211.44;5085329;28;20118;-44
2021/04/10 08:03:50;;;;;;;1.33;1.23;;;;;;;25.36;10.94;94213.03;5089021;28;20536;-44
2021/04/10 08:06:18;;;;;;;0.20;0.20;;;;;;;26.28;10.50;94219.78;5089302;28;20059;-44
2021/04/10 08:08:44;;;;;;;1.20;1.03;;;;;;;27.02;11.84;94211.94;5076130;28;20032;-47
2021/04/10 08:11:10;;;;;;;0.60;0.50;;;;;;;27.29;11.70;94213.13;5077348;28;20259;-45
2021/04/10 08:13:36;;;;;;;0.65;0.35;;;;;;;27.24;11.57;94209.38;5079663;28;20031;-45
2021/04/10 08:16:15;;;;;;;1.02;0.50;;;;;;;27.31;11.17;94211.06;5087967;28;20103;-45
2021/04/10 08:18:52;;;;;;;1.42;1.15;;;;;;;27.04;11.15;94208.47;5086901;28;20105;-47
2021/04/10 08:21:18;;;;;;;1.00;0.80;;;;;;;26.87;10.73;94221.19;5087788;28;20032;-47
2021/04/10 08:23:44;;;;;;;0.20;0.20;;;;;;;27.22;10.79;94219.88;5087365;28;20035;-45
2021/04/10 08:26:09;;;;;;;24.80;1.10;;;;;;;27.26;10.01;94211.56;5087681;28;20060;-48
2021/04/10 08:28:36;;;;;;;1.27;0.77;;;;;;;27.56;10.64;94221.41;5086856;28;20020;-48
2021/04/10 08:31:02;;;;;;;0.52;0.52;;;;;;;28.43;9.92;94212.31;5068072;28;20048;-47
2021/04/10 08:33:29;;;;;;;0.98;0.63;;;;;;;27.60;10.91;94213.06;5068377;28;20044;-46
2021/04/10 08:35:55;;;;;;;1.52;1.42;;;;;;;25.94;11.40;94215.25;5068030;28;20102;-45
2021/04/10 08:38:23;;;;;;;0.77;0.73;;;;;;;26.73;10.24;94209.19;5066973;28;20040;-49
2021/04/10 08:40:51;;;;;;;0.60;0.47;;;;;;;27.54;9.58;94209.97;5067696;28;20037;-46
2021/04/10 08:43:18;;;;;;;0.60;0.60;;;;;;;27.98;9.61;94220.38;5067659;28;20107;-45
2021/04/10 08:45:44;;;;;;;1.02;0.77;;;;;;;28.60;9.37;94210.09;5066354;28;20555;-49
2021/04/10 08:48:10;;;;;;;0.80;0.77;;;;;;;27.86;10.42;94214.19;5066311;28;20025;-45
2021/04/10 08:50:38;;;;;;;0.88;0.77;;;;;;;28.58;9.97;94210.03;5077102;28;20044;-46
2021/04/10 08:53:08;;;;;;;1.42;1.15;;;;;;;28.57;10.16;94214.97;5087777;28;20081;-45
2021/04/10 08:55:35;;;;;;;0.22;0.20;;;;;;;29.07;8.66;94196.28;5077473;28;20024;-46
2021/04/10 08:58:24;;;;;;;1.80;0.77;;;;;;;29.15;9.56;94194.44;5088430;28;20570;-45
2021/04/10 09:01:11;;;;;;;0.70;0.70;;;;;;;28.49;9.84;94197.59;5087641;28;20042;-49
2021/04/10 09:03:45;;;;;;;0.85;0.82;;;;;;;28.85;9.12;94195.44;5079616;28;20059;-48
2021/04/10 09:06:15;;;;;;;0.30;0.30;;;;;;;28.29;8.36;94188.28;5087553;28;20044;-48
2021/04/10 09:08:40;;;;;;;2.42;1.08;;;;;;;28.25;9.86;94183.16;5087185;28;20012;-45
2021/04/10 09:11:08;;;;;;;0.30;0.30;;;;;;;24.09;10.53;94177.97;5087635;28;20034;-44
2021/04/10 09:13:59;;;;;;;2.05;0.70;;;;;;;25.18;12.36;94176.09;5087682;28;20056;-47
2021/04/10 09:16:31;;;;;;;0.43;0.43;;;;;;;26.35;11.47;94175.50;5083436;28;20035;-44
2021/04/10 09:19:00;;;;;;;1.15;0.93;;;;;;;26.69;12.37;94177.81;5087191;28;20015;-48
2021/04/10 09:21:43;;;;;;;1.27;1.17;;;;;;;27.12;10.87;94179.72;5087418;28;20085;-47
2021/04/10 09:24:28;;;;;;;0.68;0.60;;;;;;;27.40;10.82;94178.88;5087636;28;20039;-47
2021/04/10 09:26:57;;;;;;;0.20;0.20;;;;;;;27.76;10.60;94182.56;5087290;28;20028;-47
2021/04/10 09:29:24;;;;;;;0.52;0.40;;;;;;;28.82;8.78;94171.19;5085373;28;20032;-47
2021/04/10 09:31:55;;;;;;;0.90;0.40;;;;;;;29.37;9.03;94165.41;5086859;28;20099;-46
2021/04/10 09:34:58;;;;;;;2.55;0.85;;;;;;;29.70;9.29;94157.31;5087984;28;20423;-46
2021/04/10 09:37:24;;;;;;;0.52;0.52;;;;;;;28.90;8.58;94158.00;5091575;28;20416;-50
2021/04/10 09:40:03;;;;;;;0.60;0.60;;;;;;;28.48;10.25;94156.34;5091388;28;20027;-49
2021/04/10 09:42:35;;;;;;;1.67;0.85;;;;;;;28.33;10.04;94157.91;5090130;28;20040;-49
2021/04/10 09:45:11;;;;;;;1.08;0.65;;;;;;;28.06;10.14;94161.09;5091318;28;20031;-46
2021/04/10 09:47:54;;;;;;;0.68;0.68;;;;;;;27.26;8.66;94163.34;5091274;28;20505;-46
2021/04/10 09:50:23;;;;;;;0.20;0.20;;;;;;;27.15;9.88;94158.63;5089393;28;20484;-47
2021/04/10 09:52:53;;;;;;;1.00;0.98;;;;;;;27.68;9.58;94157.41;5091851;28;20416;-48
2021/04/10 09:55:20;;;;;;;0.77;0.75;;;;;;;27.67;10.26;94143.84;5090467;28;20028;-47
2021/04/10 09:57:59;;;;;;;0.40;0.38;;;;;;;27.83;10.30;94138.84;5091294;28;20028;-48
2021/04/10 10:00:25;;;;;;;0.63;0.47;;;;;;;27.21;10.93;94122.00;5089676;28;20455;-48
2021/04/10 10:02:58;;;;;;;0.45;0.45;;;;;;;27.69;11.23;94144.69;5069328;28;20102;-49
2021/04/10 10:05:24;;;;;;;0.38;0.38;;;;;;;27.53;10.65;94144.00;5071035;28;20506;-49
2021/04/10 10:07:50;;;;;;;0.15;0.15;;;;;;;25.92;9.20;94141.59;5070760;28;20760;-48
2021/04/10 10:10:20;;;;;;;0.60;0.60;;;;;;;26.57;11.18;94137.63;5070964;28;20024;-46
2021/04/10 10:12:46;;;;;;;0.43;0.43;;;;;;;27.32;10.37;94129.56;5070975;28;20032;-48
2021/04/10 10:15:21;;;;;;;1.05;0.88;;;;;;;27.90;10.35;94131.28;5079598;28;20181;-48
2021/04/10 10:17:47;;;;;;;0.40;0.40;;;;;;;28.60;8.27;94130.53;5090903;28;20065;-49
2021/04/10 10:20:14;;;;;;;0.68;0.30;;;;;;;28.19;9.72;94128.25;5089284;28;20032;-49
2021/04/10 10:22:40;;;;;;;0.75;0.68;;;;;;;28.22;10.26;94124.13;5086727;28;20039;-49
2021/04/10 10:25:07;;;;;;;0.65;0.55;;;;;;;27.44;8.87;94118.78;5081032;28;20097;-48
2021/04/10 10:27:37;;;;;;;0.35;0.35;;;;;;;27.23;11.05;94116.44;5089866;28;20138;-49
2021/04/10 10:30:12;;;;;;;0.82;0.65;;;;;;;27.42;10.04;94115.84;5076942;28;20036;-48
2021/04/10 10:32:37;;;;;;;1.42;1.25;;;;;;;28.21;9.81;94111.28;5072334;28;20040;-47
2021/04/10 10:35:07;;;;;;;0.47;0.47;;;;;;;27.25;8.73;94108.75;5089347;28;20081;-46
2021/04/10 10:37:32;;;;;;;1.02;0.98;;;;;;;26.98;10.49;94104.03;5089346;28;20024;-45
2021/04/10 10:39:58;;;;;;;0.32;0.25;;;;;;;28.03;10.45;94105.63;5089553;28;20028;-50
2021/04/10 10:42:25;;;;;;;0.40;0.40;;;;;;;28.30;10.41;94105.28;5089499;28;20032;-48
2021/04/10 10:44:51;;;;;;;0.25;0.25;;;;;;;28.17;9.73;94096.94;5090459;28;20039;-47
2021/04/10 10:47:17;;;;;;;0.25;0.25;;;;;;;28.64;8.08;94100.16;5089540;28;20094;-47
2021/04/10 10:49:49;;;;;;;0.40;0.40;;;;;;;27.97;8.78;94088.34;5073300;28;20504;-48
2021/04/10 10:52:15;;;;;;;0.45;0.43;;;;;;;28.00;8.11;94092.00;5079645;28;20036;-50
2021/04/10 10:54:42;;;;;;;1.15;1.00;;;;;;;27.71;10.01;94084.44;5088842;28;20416;-46
2021/04/10 10:57:09;;;;;;;2.85;1.52;;;;;;;27.73;9.61;94087.34;5090391;28;20535;-50
2021/04/10 10:59:34;;;;;;;11.80;2.72;;;;;;;27.23;11.41;94085.97;5090271;28;20028;-46
2021/04/10 11:02:00;;;;;;;0.70;0.30;;;;;;;27.07;11.27;94082.47;5087968;28;20196;-46
2021/04/10 11:04:27;;;;;;;1.17;1.08;;;;;;;27.35;10.63;94082.94;5089546;28;20059;-48
2021/04/10 11:06:55;;;;;;;0.60;0.60;;;;;;;27.16;10.00;94075.03;5090222;28;20049;-49
2021/04/10 11:09:23;;;;;;;0.65;0.65;;;;;;;27.50;8.80;94067.97;5089057;28;20036;-47
2021/04/10 11:11:50;;;;;;;0.30;0.30;;;;;;;27.74;9.47;94071.81;5090473;28;20042;-44
2021/04/10 11:14:29;;;;;;;1.30;0.75;;;;;;;27.17;10.03;94074.38;5088811;28;20028;-46
2021/04/10 11:16:56;;;;;;;0.22;0.22;;;;;;;27.60;9.41;94071.22;5088799;28;20410;-49
2021/04/10 11:19:38;;;;;;;1.35;1.00;;;;;;;26.92;10.11;94055.59;5090041;28;20028;-44
2021/04/10 11:22:14;;;;;;;3.40;1.42;;;;;;;27.16;11.03;94055.91;5089712;28;20043;-46
2021/04/10 11:24:49;;;;;;;0.50;0.45;;;;;;;26.44;11.82;94059.13;5089598;28;20035;-47
2021/04/10 11:27:17;;;;;;;0.20;0.13;;;;;;;26.57;12.44;94063.97;5089618;28;20042;-46
2021/04/10 11:29:54;;;;;;;0.30;0.30;;;;;;;25.73;9.85;94043.78;5081460;28;20028;-45
2021/04/10 11:32:19;;;;;;;0.20;0.20;;;;;;;25.72;10.89;94036.69;5084991;28;20047;-45
2021/04/10 11:34:48;;;;;;;0.32;0.32;;;;;;;24.41;11.54;94038.59;5089527;28;20570;-47
2021/04/10 11:37:17;;;;;;;;;;;;;;;24.18;10.39;94035.22;5089806;28;20027;-46
2021/04/10 11:40:09;;;;;;;0.20;0.20;;;;;;;23.97;12.24;94036.94;5089394;28;19990;-46
2021/04/10 11:42:39;;;;;;;0.57;0.57;;;;;;;24.02;13.51;94035.81;5089077;28;20054;-45